PWSweather.com
Personal Weather Stations
Station Observations
PWSTHORN2
Thornton, Nh Usa, Thornton, NH 03285

Thornton, Nh UsaThornton, NH 03285

Lat: 43.8870699, Lon: -71.6632763

Elevation: 640

Station Type: Ambient WS 2080

Latest ConditionsUpdated 7:05:01 PM EDT Wednesday, Oct 16, 2019
Currently Today's Max Today's Min Today's Average
Temperature 52.3°F11.3°C 60.3°F15.7°C 26.8°F-2.9°C 42.1°F5.6°C
Dew Point 50.7°F10.4°C 58.5°F14.7°C 25.3°F-3.7°C 40.5°F4.7°C
Winds 2.2 mph E3.5 kmh E 9.8 mph -15.8 kmh - - 1.9 mph 3.1 kmh
Wind Gusts 7.6 mph12.2 kmh 17.4 mph28.0 kmh - -
Humidity 94% 94% 94% 94%
Pressure 28.94 in980.0 mb 29.24 in990.2 mb 28.94 in980.0 mb -
Hour Temp Dew Point Humidity Winds Wind Gusts Pressure Precip Precip Rate Daily Precip Total
07:05 PM 52.3°F11.3°C 50.7°F10.4°C 94% 2.2 mph E3.5 kmh E 7.6 mph12.2 kmh 28.94 in980.0 mb 0.00 in0.0 mm 0.00 in0.0 mm 0.00 in0.0 mm
07:00 PM 52.3°F11.3°C 50.7°F10.4°C 94% 5.4 mph E8.7 kmh E 7.6 mph12.2 kmh 28.94 in980.0 mb 0.00 in0.0 mm 0.00 in0.0 mm 0.00 in0.0 mm
06:55 PM 52.5°F11.4°C 50.8°F10.4°C 94% 1.6 mph E2.6 kmh E 8.3 mph13.4 kmh 28.94 in980.0 mb 0.00 in0.0 mm 0.00 in0.0 mm 0.00 in0.0 mm
06:50 PM 52.5°F11.4°C 50.8°F10.4°C 94% 3.8 mph E6.1 kmh E 8.3 mph13.4 kmh 28.95 in980.4 mb 0.00 in0.0 mm 0.00 in0.0 mm 0.00 in0.0 mm
06:45 PM 52.7°F11.5°C 51.0°F10.6°C 94% 2.2 mph E3.5 kmh E 6.0 mph9.7 kmh 28.95 in980.4 mb 0.00 in0.0 mm 0.00 in0.0 mm 0.00 in0.0 mm
06:40 PM 52.7°F11.5°C 51.0°F10.6°C 94% 2.2 mph E3.5 kmh E 8.3 mph13.4 kmh 28.95 in980.4 mb 0.00 in0.0 mm 0.00 in0.0 mm 0.00 in0.0 mm
06:35 PM 52.7°F11.5°C 51.0°F10.6°C 94% 2.2 mph E3.5 kmh E 8.3 mph13.4 kmh 28.95 in980.4 mb 0.00 in0.0 mm 0.00 in0.0 mm 0.00 in0.0 mm
06:30 PM 52.9°F11.6°C 51.2°F10.7°C 94% 2.2 mph E3.5 kmh E 6.0 mph9.7 kmh 28.95 in980.4 mb 0.00 in0.0 mm 0.00 in0.0 mm 0.00 in0.0 mm
06:25 PM 53.1°F11.7°C 51.4°F10.8°C 94% 2.2 mph E3.5 kmh E 10.7 mph17.2 kmh 28.95 in980.4 mb 0.00 in0.0 mm 0.00 in0.0 mm 0.00 in0.0 mm
06:20 PM 53.2°F11.8°C 51.6°F10.9°C 94% 3.1 mph E5.0 kmh E 10.7 mph17.2 kmh 28.96 in980.7 mb 0.00 in0.0 mm 0.00 in0.0 mm 0.00 in0.0 mm
06:15 PM 53.2°F11.8°C 51.6°F10.9°C 94% 2.2 mph E3.5 kmh E 9.8 mph15.8 kmh 28.96 in980.7 mb 0.00 in0.0 mm 0.00 in0.0 mm 0.00 in0.0 mm
06:10 PM 53.4°F11.9°C 51.7°F10.9°C 94% 3.1 mph E5.0 kmh E 9.2 mph14.8 kmh 28.96 in980.7 mb 0.00 in0.0 mm 0.00 in0.0 mm 0.00 in0.0 mm
06:05 PM 53.4°F11.9°C 51.7°F10.9°C 94% 1.6 mph E2.6 kmh E 6.9 mph11.1 kmh 28.97 in981.0 mb 0.00 in0.0 mm 0.00 in0.0 mm 0.00 in0.0 mm
06:00 PM 53.6°F12.0°C 51.9°F11.1°C 94% 2.2 mph E3.5 kmh E 13.0 mph20.9 kmh 28.97 in981.0 mb 0.00 in0.0 mm 0.00 in0.0 mm 0.00 in0.0 mm
05:55 PM 53.8°F12.1°C 52.1°F11.2°C 94% 2.2 mph E3.5 kmh E 13.0 mph20.9 kmh 28.96 in980.7 mb 0.00 in0.0 mm 0.00 in0.0 mm 0.00 in0.0 mm
05:50 PM 53.8°F12.1°C 52.1°F11.2°C 94% 7.6 mph E12.2 kmh E 13.0 mph20.9 kmh 28.96 in980.7 mb 0.00 in0.0 mm 0.00 in0.0 mm 0.00 in0.0 mm
05:45 PM 53.8°F12.1°C 52.1°F11.2°C 94% 2.2 mph E3.5 kmh E 7.6 mph12.2 kmh 28.97 in981.0 mb 0.00 in0.0 mm 0.00 in0.0 mm 0.00 in0.0 mm
05:40 PM 54.0°F12.2°C 52.3°F11.3°C 94% 3.1 mph E5.0 kmh E 8.3 mph13.4 kmh 28.97 in981.0 mb 0.00 in0.0 mm 0.00 in0.0 mm 0.00 in0.0 mm
05:35 PM 54.3°F12.4°C 52.6°F11.4°C 94% 5.4 mph E8.7 kmh E 8.3 mph13.4 kmh 28.97 in981.0 mb 0.00 in0.0 mm 0.00 in0.0 mm 0.00 in0.0 mm
05:30 PM 54.5°F12.5°C 52.8°F11.6°C 94% 5.4 mph E8.7 kmh E 8.3 mph13.4 kmh 28.97 in981.0 mb 0.00 in0.0 mm 0.00 in0.0 mm 0.00 in0.0 mm
05:25 PM 54.7°F12.6°C 53.0°F11.7°C 94% 3.8 mph E6.1 kmh E 8.3 mph13.4 kmh 28.98 in981.4 mb 0.00 in0.0 mm 0.00 in0.0 mm 0.00 in0.0 mm
05:20 PM 54.9°F12.7°C 53.2°F11.8°C 94% 1.6 mph E2.6 kmh E 8.3 mph13.4 kmh 28.98 in981.4 mb 0.00 in0.0 mm 0.00 in0.0 mm 0.00 in0.0 mm
05:15 PM 55.0°F12.8°C 53.4°F11.9°C 94% 5.4 mph E8.7 kmh E 9.8 mph15.8 kmh 28.98 in981.4 mb 0.00 in0.0 mm 0.00 in0.0 mm 0.00 in0.0 mm
05:10 PM 55.2°F12.9°C 53.5°F11.9°C 94% 3.8 mph E6.1 kmh E 9.8 mph15.8 kmh 28.99 in981.7 mb 0.00 in0.0 mm 0.00 in0.0 mm 0.00 in0.0 mm
05:05 PM 55.4°F13.0°C 53.7°F12.1°C 94% 3.1 mph ESE5.0 kmh ESE 11.4 mph18.3 kmh 28.99 in981.7 mb 0.00 in0.0 mm 0.00 in0.0 mm 0.00 in0.0 mm
05:00 PM 55.4°F13.0°C 53.7°F12.1°C 94% 6.0 mph SE9.7 kmh SE 11.4 mph18.3 kmh 29.00 in982.1 mb 0.00 in0.0 mm 0.00 in0.0 mm 0.00 in0.0 mm
04:55 PM 55.6°F13.1°C 53.9°F12.2°C 94% 1.6 mph SSE2.6 kmh SSE 15.9 mph25.6 kmh 29.00 in982.1 mb 0.00 in0.0 mm 0.00 in0.0 mm 0.00 in0.0 mm
04:50 PM 55.6°F13.1°C 53.9°F12.2°C 94% 4.5 mph SW7.2 kmh SW 15.9 mph25.6 kmh 29.00 in982.1 mb 0.00 in0.0 mm 0.00 in0.0 mm 0.00 in0.0 mm
04:45 PM 55.9°F13.3°C 54.2°F12.3°C 94% 4.5 mph SW7.2 kmh SW 15.2 mph24.5 kmh 29.00 in982.1 mb 0.00 in0.0 mm 0.00 in0.0 mm 0.00 in0.0 mm
04:40 PM 55.9°F13.3°C 54.2°F12.3°C 94% 8.3 mph SSW13.4 kmh SSW 15.2 mph24.5 kmh 29.00 in982.1 mb 0.00 in0.0 mm 0.00 in0.0 mm 0.00 in0.0 mm
04:35 PM 56.1°F13.4°C 54.4°F12.4°C 94% 6.0 mph SE9.7 kmh SE 9.2 mph14.8 kmh 29.00 in982.1 mb 0.00 in0.0 mm 0.00 in0.0 mm 0.00 in0.0 mm
04:30 PM 56.5°F13.6°C 54.8°F12.7°C 94% 5.4 mph ENE8.7 kmh ENE 12.1 mph19.5 kmh 29.00 in982.1 mb 0.00 in0.0 mm 0.00 in0.0 mm 0.00 in0.0 mm
04:25 PM 56.5°F13.6°C 54.8°F12.7°C 94% 5.4 mph W8.7 kmh W 13.0 mph20.9 kmh 29.00 in982.1 mb 0.00 in0.0 mm 0.00 in0.0 mm 0.00 in0.0 mm
04:20 PM 56.7°F13.7°C 55.0°F12.8°C 94% 3.1 mph WSW5.0 kmh WSW 13.0 mph20.9 kmh 29.00 in982.1 mb 0.00 in0.0 mm 0.00 in0.0 mm 0.00 in0.0 mm
04:15 PM 56.7°F13.7°C 55.0°F12.8°C 94% 7.6 mph N12.2 kmh N 13.6 mph21.9 kmh 29.00 in982.1 mb 0.00 in0.0 mm 0.00 in0.0 mm 0.00 in0.0 mm
04:10 PM 56.8°F13.8°C 55.1°F12.8°C 94% 4.5 mph N7.2 kmh N 13.6 mph21.9 kmh 29.00 in982.1 mb 0.00 in0.0 mm 0.00 in0.0 mm 0.00 in0.0 mm
04:05 PM 57.0°F13.9°C 55.3°F12.9°C 94% 3.8 mph N6.1 kmh N 11.4 mph18.3 kmh 29.00 in982.1 mb 0.00 in0.0 mm 0.00 in0.0 mm 0.00 in0.0 mm
04:00 PM 57.4°F14.1°C 55.7°F13.2°C 94% 7.6 mph NE12.2 kmh NE 12.1 mph19.5 kmh 29.00 in982.1 mb 0.00 in0.0 mm 0.00 in0.0 mm 0.00 in0.0 mm
03:55 PM 57.4°F14.1°C 55.7°F13.2°C 94% 4.5 mph E7.2 kmh E 12.1 mph19.5 kmh 29.00 in982.1 mb 0.00 in0.0 mm 0.00 in0.0 mm 0.00 in0.0 mm
03:50 PM 57.6°F14.2°C 55.9°F13.3°C 94% 3.8 mph E6.1 kmh E 8.3 mph13.4 kmh 29.00 in982.1 mb 0.00 in0.0 mm 0.00 in0.0 mm 0.00 in0.0 mm
03:45 PM 57.6°F14.2°C 55.9°F13.3°C 94% 4.5 mph E7.2 kmh E 11.4 mph18.3 kmh 29.00 in982.1 mb 0.00 in0.0 mm 0.00 in0.0 mm 0.00 in0.0 mm
03:40 PM 57.9°F14.4°C 56.2°F13.4°C 94% 4.5 mph E7.2 kmh E 11.4 mph18.3 kmh 29.00 in982.1 mb 0.00 in0.0 mm 0.00 in0.0 mm 0.00 in0.0 mm
03:35 PM 58.1°F14.5°C 56.4°F13.6°C 94% 6.9 mph E11.1 kmh E 11.4 mph18.3 kmh 28.99 in981.7 mb 0.00 in0.0 mm 0.00 in0.0 mm 0.00 in0.0 mm
03:30 PM 58.1°F14.5°C 56.4°F13.6°C 94% 2.2 mph E3.5 kmh E 13.6 mph21.9 kmh 29.00 in982.1 mb 0.00 in0.0 mm 0.00 in0.0 mm 0.00 in0.0 mm
03:25 PM 58.5°F14.7°C 56.8°F13.8°C 94% 3.8 mph ESE6.1 kmh ESE 14.5 mph23.3 kmh 29.01 in982.4 mb 0.00 in0.0 mm 0.00 in0.0 mm 0.00 in0.0 mm
03:20 PM 58.6°F14.8°C 56.9°F13.8°C 94% 5.4 mph ESE8.7 kmh ESE 14.5 mph23.3 kmh 29.00 in982.1 mb 0.00 in0.0 mm 0.00 in0.0 mm 0.00 in0.0 mm
03:15 PM 59.0°F15.0°C 57.3°F14.1°C 94% 3.1 mph E5.0 kmh E 10.7 mph17.2 kmh 29.01 in982.4 mb 0.00 in0.0 mm 0.00 in0.0 mm 0.00 in0.0 mm
03:10 PM 59.0°F15.0°C 57.3°F14.1°C 94% 6.9 mph E11.1 kmh E 11.4 mph18.3 kmh 29.02 in982.7 mb 0.00 in0.0 mm 0.00 in0.0 mm 0.00 in0.0 mm
03:05 PM 58.6°F14.8°C 56.9°F13.8°C 94% 3.1 mph ESE5.0 kmh ESE 11.4 mph18.3 kmh 29.02 in982.7 mb 0.00 in0.0 mm 0.00 in0.0 mm 0.00 in0.0 mm
03:00 PM 58.6°F14.8°C 56.9°F13.8°C 94% 2.2 mph S3.5 kmh S 10.7 mph17.2 kmh 29.02 in982.7 mb 0.00 in0.0 mm 0.00 in0.0 mm 0.00 in0.0 mm
02:55 PM 59.4°F15.2°C 57.6°F14.2°C 94% 3.8 mph WSW6.1 kmh WSW 7.6 mph12.2 kmh 29.03 in983.1 mb 0.00 in0.0 mm 0.00 in0.0 mm 0.00 in0.0 mm
02:50 PM 59.4°F15.2°C 57.6°F14.2°C 94% 1.6 mph W2.6 kmh W 12.1 mph19.5 kmh 29.03 in983.1 mb 0.00 in0.0 mm 0.00 in0.0 mm 0.00 in0.0 mm
02:45 PM 59.2°F15.1°C 57.5°F14.2°C 94% 6.9 mph W11.1 kmh W 17.4 mph28.0 kmh 29.03 in983.1 mb 0.00 in0.0 mm 0.00 in0.0 mm 0.00 in0.0 mm
02:40 PM 59.2°F15.1°C 57.5°F14.2°C 94% 2.2 mph W3.5 kmh W 17.4 mph28.0 kmh 29.03 in983.1 mb 0.00 in0.0 mm 0.00 in0.0 mm 0.00 in0.0 mm
02:35 PM 59.0°F15.0°C 57.3°F14.1°C 94% 3.1 mph NW5.0 kmh NW 12.1 mph19.5 kmh 29.04 in983.4 mb 0.00 in0.0 mm 0.00 in0.0 mm 0.00 in0.0 mm
02:30 PM 59.2°F15.1°C 57.5°F14.2°C 94% 4.5 mph N7.2 kmh N 9.2 mph14.8 kmh 29.04 in983.4 mb 0.00 in0.0 mm 0.00 in0.0 mm 0.00 in0.0 mm
02:25 PM 59.4°F15.2°C 57.6°F14.2°C 94% 3.8 mph NW6.1 kmh NW 10.7 mph17.2 kmh 29.05 in983.7 mb 0.00 in0.0 mm 0.00 in0.0 mm 0.00 in0.0 mm
02:20 PM 59.2°F15.1°C 57.5°F14.2°C 94% 3.8 mph WNW6.1 kmh WNW 14.5 mph23.3 kmh 29.05 in983.7 mb 0.00 in0.0 mm 0.00 in0.0 mm 0.00 in0.0 mm
02:15 PM 59.2°F15.1°C 57.5°F14.2°C 94% 3.1 mph NW5.0 kmh NW 14.5 mph23.3 kmh 29.04 in983.4 mb 0.00 in0.0 mm 0.00 in0.0 mm 0.00 in0.0 mm
02:10 PM 59.5°F15.3°C 57.8°F14.3°C 94% 9.8 mph NE15.8 kmh NE 14.5 mph23.3 kmh 29.05 in983.7 mb 0.00 in0.0 mm 0.00 in0.0 mm 0.00 in0.0 mm
02:05 PM 59.4°F15.2°C 57.6°F14.2°C 94% 5.4 mph NE8.7 kmh NE 11.4 mph18.3 kmh 29.05 in983.7 mb 0.00 in0.0 mm 0.00 in0.0 mm 0.00 in0.0 mm
02:00 PM 59.4°F15.2°C 57.6°F14.2°C 94% 6.0 mph NE9.7 kmh NE 15.9 mph25.6 kmh 29.05 in983.7 mb 0.00 in0.0 mm 0.00 in0.0 mm 0.00 in0.0 mm
01:55 PM 59.4°F15.2°C 57.6°F14.2°C 94% 5.4 mph NE8.7 kmh NE 15.9 mph25.6 kmh 29.04 in983.4 mb 0.00 in0.0 mm 0.00 in0.0 mm 0.00 in0.0 mm
01:50 PM 59.7°F15.4°C 58.0°F14.4°C 94% 3.1 mph NE5.0 kmh NE 15.2 mph24.5 kmh 29.05 in983.7 mb 0.00 in0.0 mm 0.00 in0.0 mm 0.00 in0.0 mm
01:45 PM 59.7°F15.4°C 58.0°F14.4°C 94% 4.5 mph ENE7.2 kmh ENE 15.2 mph24.5 kmh 29.05 in983.7 mb 0.00 in0.0 mm 0.00 in0.0 mm 0.00 in0.0 mm
01:40 PM 60.1°F15.6°C 58.4°F14.7°C 94% 6.0 mph E9.7 kmh E 13.0 mph20.9 kmh 29.05 in983.7 mb 0.00 in0.0 mm 0.00 in0.0 mm 0.00 in0.0 mm
01:35 PM 60.1°F15.6°C 58.4°F14.7°C 94% 2.2 mph E3.5 kmh E 12.1 mph19.5 kmh 29.06 in984.1 mb 0.00 in0.0 mm 0.00 in0.0 mm 0.00 in0.0 mm
01:30 PM 59.7°F15.4°C 58.0°F14.4°C 94% 7.6 mph E12.2 kmh E 13.6 mph21.9 kmh 29.05 in983.7 mb 0.00 in0.0 mm 0.00 in0.0 mm 0.00 in0.0 mm
01:25 PM 59.5°F15.3°C 57.8°F14.3°C 94% 4.5 mph E7.2 kmh E 13.6 mph21.9 kmh 29.05 in983.7 mb 0.00 in0.0 mm 0.00 in0.0 mm 0.00 in0.0 mm
01:20 PM 60.1°F15.6°C 58.4°F14.7°C 94% 8.3 mph E13.4 kmh E 12.1 mph19.5 kmh 29.06 in984.1 mb 0.00 in0.0 mm 0.00 in0.0 mm 0.00 in0.0 mm
01:15 PM 59.5°F15.3°C 57.8°F14.3°C 94% 7.6 mph E12.2 kmh E 15.2 mph24.5 kmh 29.07 in984.4 mb 0.00 in0.0 mm 0.00 in0.0 mm 0.00 in0.0 mm
01:10 PM 59.9°F15.5°C 58.2°F14.6°C 94% 6.9 mph E11.1 kmh E 15.2 mph24.5 kmh 29.07 in984.4 mb 0.00 in0.0 mm 0.00 in0.0 mm 0.00 in0.0 mm
01:05 PM 59.9°F15.5°C 58.2°F14.6°C 94% 6.9 mph E11.1 kmh E 12.1 mph19.5 kmh 29.07 in984.4 mb 0.00 in0.0 mm 0.00 in0.0 mm 0.00 in0.0 mm
01:00 PM 60.3°F15.7°C 58.5°F14.7°C 94% 2.2 mph E3.5 kmh E 11.4 mph18.3 kmh 29.07 in984.4 mb 0.00 in0.0 mm 0.00 in0.0 mm 0.00 in0.0 mm
12:55 PM 60.3°F15.7°C 58.5°F14.7°C 94% 7.6 mph SE12.2 kmh SE 11.4 mph18.3 kmh 29.08 in984.8 mb 0.00 in0.0 mm 0.00 in0.0 mm 0.00 in0.0 mm
12:50 PM 59.4°F15.2°C 57.6°F14.2°C 94% 2.2 mph SE3.5 kmh SE 12.1 mph19.5 kmh 29.07 in984.4 mb 0.00 in0.0 mm 0.00 in0.0 mm 0.00 in0.0 mm
12:45 PM 59.0°F15.0°C 57.3°F14.1°C 94% 6.9 mph SSE11.1 kmh SSE 13.6 mph21.9 kmh 29.08 in984.8 mb 0.00 in0.0 mm 0.00 in0.0 mm 0.00 in0.0 mm
12:40 PM 59.2°F15.1°C 57.5°F14.2°C 94% 6.9 mph SSW11.1 kmh SSW 13.6 mph21.9 kmh 29.09 in985.1 mb 0.00 in0.0 mm 0.00 in0.0 mm 0.00 in0.0 mm
12:35 PM 59.4°F15.2°C 57.6°F14.2°C 94% 6.9 mph NW11.1 kmh NW 15.2 mph24.5 kmh 29.08 in984.8 mb 0.00 in0.0 mm 0.00 in0.0 mm 0.00 in0.0 mm
12:30 PM 59.0°F15.0°C 57.3°F14.1°C 94% 2.2 mph NNW3.5 kmh NNW 15.2 mph24.5 kmh 29.09 in985.1 mb 0.00 in0.0 mm 0.00 in0.0 mm 0.00 in0.0 mm
12:25 PM 59.2°F15.1°C 57.5°F14.2°C 94% 6.9 mph NW11.1 kmh NW 14.5 mph23.3 kmh 29.09 in985.1 mb 0.00 in0.0 mm 0.00 in0.0 mm 0.00 in0.0 mm
12:20 PM 59.2°F15.1°C 57.5°F14.2°C 94% 7.6 mph WNW12.2 kmh WNW 14.5 mph23.3 kmh 29.10 in985.4 mb 0.00 in0.0 mm 0.00 in0.0 mm 0.00 in0.0 mm
12:15 PM 59.5°F15.3°C 57.8°F14.3°C 94% 5.4 mph E8.7 kmh E 12.1 mph19.5 kmh 29.09 in985.1 mb 0.00 in0.0 mm 0.00 in0.0 mm 0.00 in0.0 mm
12:10 PM 59.2°F15.1°C 57.5°F14.2°C 94% 3.8 mph NNW6.1 kmh NNW 12.1 mph19.5 kmh 29.10 in985.4 mb 0.00 in0.0 mm 0.00 in0.0 mm 0.00 in0.0 mm
12:05 PM 59.0°F15.0°C 57.3°F14.1°C 94% 3.1 mph WSW5.0 kmh WSW 10.7 mph17.2 kmh 29.08 in984.8 mb 0.00 in0.0 mm 0.00 in0.0 mm 0.00 in0.0 mm
12:00 PM 58.6°F14.8°C 56.9°F13.8°C 94% 5.4 mph W8.7 kmh W 10.7 mph17.2 kmh 29.09 in985.1 mb 0.00 in0.0 mm 0.00 in0.0 mm 0.00 in0.0 mm
11:55 AM 57.9°F14.4°C 56.2°F13.4°C 94% 4.5 mph NNE7.2 kmh NNE 12.1 mph19.5 kmh 29.09 in985.1 mb 0.00 in0.0 mm 0.00 in0.0 mm 0.00 in0.0 mm
11:50 AM 57.7°F14.3°C 56.0°F13.3°C 94% 1.6 mph NE2.6 kmh NE 12.1 mph19.5 kmh 29.10 in985.4 mb 0.00 in0.0 mm 0.00 in0.0 mm 0.00 in0.0 mm
11:45 AM 57.9°F14.4°C 56.2°F13.4°C 94% 1.6 mph NE2.6 kmh NE 10.7 mph17.2 kmh 29.11 in985.8 mb 0.00 in0.0 mm 0.00 in0.0 mm 0.00 in0.0 mm
11:40 AM 56.8°F13.8°C 55.1°F12.8°C 94% 3.1 mph NNW5.0 kmh NNW 8.3 mph13.4 kmh 29.12 in986.1 mb 0.00 in0.0 mm 0.00 in0.0 mm 0.00 in0.0 mm
11:35 AM 55.9°F13.3°C 54.2°F12.3°C 94% 1.6 mph WNW2.6 kmh WNW 6.9 mph11.1 kmh 29.12 in986.1 mb 0.00 in0.0 mm 0.00 in0.0 mm 0.00 in0.0 mm
11:30 AM 54.9°F12.7°C 53.2°F11.8°C 94% 3.8 mph WNW6.1 kmh WNW 9.2 mph14.8 kmh 29.12 in986.1 mb 0.00 in0.0 mm 0.00 in0.0 mm 0.00 in0.0 mm
11:25 AM 54.0°F12.2°C 52.3°F11.3°C 94% 0.7 mph W1.1 kmh W 9.2 mph14.8 kmh 29.12 in986.1 mb 0.00 in0.0 mm 0.00 in0.0 mm 0.00 in0.0 mm
11:20 AM 53.2°F11.8°C 51.6°F10.9°C 94% 3.1 mph W5.0 kmh W 6.0 mph9.7 kmh 29.12 in986.1 mb 0.00 in0.0 mm 0.00 in0.0 mm 0.00 in0.0 mm
11:15 AM 52.3°F11.3°C 50.7°F10.4°C 94% 1.6 mph W2.6 kmh W 6.0 mph9.7 kmh 29.12 in986.1 mb 0.00 in0.0 mm 0.00 in0.0 mm 0.00 in0.0 mm
11:10 AM 51.6°F10.9°C 50.0°F10.0°C 94% 0.7 mph W1.1 kmh W 3.8 mph6.1 kmh 29.12 in986.1 mb 0.00 in0.0 mm 0.00 in0.0 mm 0.00 in0.0 mm
11:05 AM 50.5°F10.3°C 48.9°F9.4°C 94% 2.2 mph W3.5 kmh W 3.8 mph6.1 kmh 29.12 in986.1 mb 0.00 in0.0 mm 0.00 in0.0 mm 0.00 in0.0 mm
11:00 AM 49.6°F9.8°C 48.0°F8.9°C 94% 1.6 mph W2.6 kmh W 3.1 mph5.0 kmh 29.12 in986.1 mb 0.00 in0.0 mm 0.00 in0.0 mm 0.00 in0.0 mm
10:55 AM 48.7°F9.3°C 47.1°F8.4°C 94% Calm Calm 2.2 mph3.5 kmh 29.12 in986.1 mb 0.00 in0.0 mm 0.00 in0.0 mm 0.00 in0.0 mm
10:50 AM 48.0°F8.9°C 46.4°F8.0°C 94% Calm Calm 3.1 mph5.0 kmh 29.11 in985.8 mb 0.00 in0.0 mm 0.00 in0.0 mm 0.00 in0.0 mm
10:45 AM 46.2°F7.9°C 44.6°F7.0°C 94% Calm Calm 3.1 mph5.0 kmh 29.12 in986.1 mb 0.00 in0.0 mm 0.00 in0.0 mm 0.00 in0.0 mm
10:40 AM 45.3°F7.4°C 43.7°F6.5°C 94% Calm Calm 2.2 mph3.5 kmh 29.12 in986.1 mb 0.00 in0.0 mm 0.00 in0.0 mm 0.00 in0.0 mm
10:35 AM 44.6°F7.0°C 43.0°F6.1°C 94% Calm Calm 2.2 mph3.5 kmh 29.12 in986.1 mb 0.00 in0.0 mm 0.00 in0.0 mm 0.00 in0.0 mm
10:30 AM 44.1°F6.7°C 42.4°F5.8°C 94% 0.7 mph W1.1 kmh W 2.2 mph3.5 kmh 29.12 in986.1 mb 0.00 in0.0 mm 0.00 in0.0 mm 0.00 in0.0 mm
10:25 AM 43.2°F6.2°C 41.6°F5.3°C 94% Calm Calm 3.1 mph5.0 kmh 29.13 in986.5 mb 0.00 in0.0 mm 0.00 in0.0 mm 0.00 in0.0 mm
10:20 AM 42.8°F6.0°C 41.2°F5.1°C 94% 1.6 mph W2.6 kmh W 3.1 mph5.0 kmh 29.13 in986.5 mb 0.00 in0.0 mm 0.00 in0.0 mm 0.00 in0.0 mm
10:15 AM 42.4°F5.8°C 40.8°F4.9°C 94% Calm Calm 2.2 mph3.5 kmh 29.14 in986.8 mb 0.00 in0.0 mm 0.00 in0.0 mm 0.00 in0.0 mm
10:10 AM 42.1°F5.6°C 40.5°F4.7°C 94% 0.7 mph W1.1 kmh W 2.2 mph3.5 kmh 29.14 in986.8 mb 0.00 in0.0 mm 0.00 in0.0 mm 0.00 in0.0 mm
10:05 AM 41.4°F5.2°C 39.8°F4.3°C 94% Calm Calm 2.2 mph3.5 kmh 29.15 in987.1 mb 0.00 in0.0 mm 0.00 in0.0 mm 0.00 in0.0 mm
10:00 AM 40.5°F4.7°C 38.9°F3.8°C 94% Calm Calm 2.2 mph3.5 kmh 29.15 in987.1 mb 0.00 in0.0 mm 0.00 in0.0 mm 0.00 in0.0 mm
09:55 AM 40.1°F4.5°C 38.5°F3.6°C 94% Calm Calm 1.6 mph2.6 kmh 29.15 in987.1 mb 0.00 in0.0 mm 0.00 in0.0 mm 0.00 in0.0 mm
09:50 AM 39.6°F4.2°C 38.0°F3.3°C 94% Calm Calm 1.6 mph2.6 kmh 29.15 in987.1 mb 0.00 in0.0 mm 0.00 in0.0 mm 0.00 in0.0 mm
09:45 AM 39.0°F3.9°C 37.4°F3.0°C 94% Calm Calm 1.6 mph2.6 kmh 29.15 in987.1 mb 0.00 in0.0 mm 0.00 in0.0 mm 0.00 in0.0 mm
09:40 AM 38.7°F3.7°C 37.1°F2.8°C 94% 0.7 mph W1.1 kmh W 1.6 mph2.6 kmh 29.15 in987.1 mb 0.00 in0.0 mm 0.00 in0.0 mm 0.00 in0.0 mm
09:35 AM 38.3°F3.5°C 36.7°F2.6°C 94% Calm Calm 1.6 mph2.6 kmh 29.15 in987.1 mb 0.00 in0.0 mm 0.00 in0.0 mm 0.00 in0.0 mm
09:30 AM 37.8°F3.2°C 36.2°F2.3°C 94% Calm Calm 1.6 mph2.6 kmh 29.16 in987.5 mb 0.00 in0.0 mm 0.00 in0.0 mm 0.00 in0.0 mm
09:25 AM 37.4°F3.0°C 35.8°F2.1°C 94% Calm Calm 0.7 mph1.1 kmh 29.16 in987.5 mb 0.00 in0.0 mm 0.00 in0.0 mm 0.00 in0.0 mm
09:20 AM 37.2°F2.9°C 35.7°F2.1°C 94% Calm Calm -- 29.16 in987.5 mb 0.00 in0.0 mm 0.00 in0.0 mm 0.00 in0.0 mm
09:15 AM 36.7°F2.6°C 35.1°F1.7°C 94% Calm Calm 0.7 mph1.1 kmh 29.16 in987.5 mb 0.00 in0.0 mm 0.00 in0.0 mm 0.00 in0.0 mm
09:10 AM 36.1°F2.3°C 34.6°F1.4°C 94% Calm Calm 1.6 mph2.6 kmh 29.17 in987.8 mb 0.00 in0.0 mm 0.00 in0.0 mm 0.00 in0.0 mm
09:05 AM 35.2°F1.8°C 33.7°F0.9°C 94% Calm Calm 2.2 mph3.5 kmh 29.17 in987.8 mb 0.00 in0.0 mm 0.00 in0.0 mm 0.00 in0.0 mm
09:00 AM 34.7°F1.5°C 33.2°F0.7°C 94% Calm Calm 2.2 mph3.5 kmh 29.17 in987.8 mb 0.00 in0.0 mm 0.00 in0.0 mm 0.00 in0.0 mm
08:55 AM 33.4°F0.8°C 31.9°F-0.1°C 94% Calm Calm 1.6 mph2.6 kmh 29.17 in987.8 mb 0.00 in0.0 mm 0.00 in0.0 mm 0.00 in0.0 mm
08:50 AM 32.5°F0.3°C 31.0°F-0.6°C 94% Calm Calm -- 29.18 in988.1 mb 0.00 in0.0 mm 0.00 in0.0 mm 0.00 in0.0 mm
08:45 AM 31.6°F-0.2°C 30.1°F-1.1°C 94% Calm Calm -- 29.18 in988.1 mb 0.00 in0.0 mm 0.00 in0.0 mm 0.00 in0.0 mm
08:40 AM 31.1°F-0.5°C 29.6°F-1.3°C 94% Calm Calm -- 29.18 in988.1 mb 0.00 in0.0 mm 0.00 in0.0 mm 0.00 in0.0 mm
08:35 AM 30.7°F-0.7°C 29.2°F-1.6°C 94% Calm Calm -- 29.19 in988.5 mb 0.00 in0.0 mm 0.00 in0.0 mm 0.00 in0.0 mm
08:30 AM 30.2°F-1.0°C 28.7°F-1.8°C 94% Calm Calm 1.6 mph2.6 kmh 29.20 in988.8 mb 0.00 in0.0 mm 0.00 in0.0 mm 0.00 in0.0 mm
08:25 AM 29.7°F-1.3°C 28.2°F-2.1°C 94% Calm Calm 1.6 mph2.6 kmh 29.20 in988.8 mb 0.00 in0.0 mm 0.00 in0.0 mm 0.00 in0.0 mm
08:20 AM 29.3°F-1.5°C 27.8°F-2.3°C 94% Calm Calm -- 29.20 in988.8 mb 0.00 in0.0 mm 0.00 in0.0 mm 0.00 in0.0 mm
08:15 AM 28.9°F-1.7°C 27.4°F-2.6°C 94% Calm Calm -- 29.19 in988.5 mb 0.00 in0.0 mm 0.00 in0.0 mm 0.00 in0.0 mm
08:10 AM 28.8°F-1.8°C 27.3°F-2.6°C 94% Calm Calm 0.7 mph1.1 kmh 29.19 in988.5 mb 0.00 in0.0 mm 0.00 in0.0 mm 0.00 in0.0 mm
08:05 AM 28.4°F-2.0°C 26.9°F-2.8°C 94% Calm Calm 0.7 mph1.1 kmh 29.19 in988.5 mb 0.00 in0.0 mm 0.00 in0.0 mm 0.00 in0.0 mm
08:00 AM 28.2°F-2.1°C 26.7°F-2.9°C 94% Calm Calm 0.7 mph1.1 kmh 29.19 in988.5 mb 0.00 in0.0 mm 0.00 in0.0 mm 0.00 in0.0 mm
07:55 AM 27.7°F-2.4°C 26.2°F-3.2°C 94% Calm Calm 1.6 mph2.6 kmh 29.19 in988.5 mb 0.00 in0.0 mm 0.00 in0.0 mm 0.00 in0.0 mm
07:50 AM 27.3°F-2.6°C 25.8°F-3.4°C 94% Calm Calm 2.2 mph3.5 kmh 29.19 in988.5 mb 0.00 in0.0 mm 0.00 in0.0 mm 0.00 in0.0 mm
07:45 AM 27.3°F-2.6°C 25.8°F-3.4°C 94% 0.7 mph W1.1 kmh W 2.2 mph3.5 kmh 29.19 in988.5 mb 0.00 in0.0 mm 0.00 in0.0 mm 0.00 in0.0 mm
07:40 AM 27.5°F-2.5°C 26.0°F-3.3°C 94% 0.7 mph W1.1 kmh W 2.2 mph3.5 kmh 29.19 in988.5 mb 0.00 in0.0 mm 0.00 in0.0 mm 0.00 in0.0 mm
07:35 AM 27.5°F-2.5°C 26.0°F-3.3°C 94% Calm Calm 1.6 mph2.6 kmh 29.19 in988.5 mb 0.00 in0.0 mm 0.00 in0.0 mm 0.00 in0.0 mm
07:30 AM 27.3°F-2.6°C 25.8°F-3.4°C 94% Calm Calm 2.2 mph3.5 kmh 29.20 in988.8 mb 0.00 in0.0 mm 0.00 in0.0 mm 0.00 in0.0 mm
07:25 AM 26.8°F-2.9°C 25.3°F-3.7°C 94% Calm Calm 2.2 mph3.5 kmh 29.19 in988.5 mb 0.00 in0.0 mm 0.00 in0.0 mm 0.00 in0.0 mm
07:20 AM 27.1°F-2.7°C 25.7°F-3.5°C 94% 0.7 mph W1.1 kmh W 2.2 mph3.5 kmh 29.20 in988.8 mb 0.00 in0.0 mm 0.00 in0.0 mm 0.00 in0.0 mm
07:15 AM 27.1°F-2.7°C 25.7°F-3.5°C 94% 0.7 mph W1.1 kmh W 2.2 mph3.5 kmh 29.19 in988.5 mb 0.00 in0.0 mm 0.00 in0.0 mm 0.00 in0.0 mm
07:10 AM 27.3°F-2.6°C 25.8°F-3.4°C 94% Calm Calm 1.6 mph2.6 kmh 29.20 in988.8 mb 0.00 in0.0 mm 0.00 in0.0 mm 0.00 in0.0 mm
07:05 AM 27.7°F-2.4°C 26.2°F-3.2°C 94% 0.7 mph W1.1 kmh W 1.6 mph2.6 kmh 29.20 in988.8 mb 0.00 in0.0 mm 0.00 in0.0 mm 0.00 in0.0 mm
07:00 AM 27.5°F-2.5°C 26.0°F-3.3°C 94% 0.7 mph W1.1 kmh W 1.6 mph2.6 kmh 29.20 in988.8 mb 0.00 in0.0 mm 0.00 in0.0 mm 0.00 in0.0 mm
06:55 AM 27.5°F-2.5°C 26.0°F-3.3°C 94% Calm Calm -- 29.20 in988.8 mb 0.00 in0.0 mm 0.00 in0.0 mm 0.00 in0.0 mm
06:50 AM 27.3°F-2.6°C 25.8°F-3.4°C 94% Calm Calm 0.7 mph1.1 kmh 29.19 in988.5 mb 0.00 in0.0 mm 0.00 in0.0 mm 0.00 in0.0 mm
06:45 AM 27.3°F-2.6°C 25.8°F-3.4°C 94% Calm Calm 0.7 mph1.1 kmh 29.19 in988.5 mb 0.00 in0.0 mm 0.00 in0.0 mm 0.00 in0.0 mm
06:40 AM 27.3°F-2.6°C 25.8°F-3.4°C 94% Calm Calm 1.6 mph2.6 kmh 29.19 in988.5 mb 0.00 in0.0 mm 0.00 in0.0 mm 0.00 in0.0 mm
06:35 AM 27.3°F-2.6°C 25.8°F-3.4°C 94% Calm Calm 1.6 mph2.6 kmh 29.19 in988.5 mb 0.00 in0.0 mm 0.00 in0.0 mm 0.00 in0.0 mm
06:30 AM 27.1°F-2.7°C 25.7°F-3.5°C 94% Calm Calm -- 29.20 in988.8 mb 0.00 in0.0 mm 0.00 in0.0 mm 0.00 in0.0 mm
06:25 AM 27.1°F-2.7°C 25.7°F-3.5°C 94% Calm Calm 0.7 mph1.1 kmh 29.20 in988.8 mb 0.00 in0.0 mm 0.00 in0.0 mm 0.00 in0.0 mm
06:20 AM 27.1°F-2.7°C 25.7°F-3.5°C 94% Calm Calm 0.7 mph1.1 kmh 29.20 in988.8 mb 0.00 in0.0 mm 0.00 in0.0 mm 0.00 in0.0 mm
06:15 AM 27.3°F-2.6°C 25.8°F-3.4°C 94% Calm Calm 0.7 mph1.1 kmh 29.20 in988.8 mb 0.00 in0.0 mm 0.00 in0.0 mm 0.00 in0.0 mm
06:10 AM 27.0°F-2.8°C 25.5°F-3.6°C 94% Calm Calm 2.2 mph3.5 kmh 29.20 in988.8 mb 0.00 in0.0 mm 0.00 in0.0 mm 0.00 in0.0 mm
06:05 AM 26.8°F-2.9°C 25.3°F-3.7°C 94% Calm Calm 2.2 mph3.5 kmh 29.20 in988.8 mb 0.00 in0.0 mm 0.00 in0.0 mm 0.00 in0.0 mm
06:00 AM 27.1°F-2.7°C 25.7°F-3.5°C 94% 0.7 mph W1.1 kmh W 2.2 mph3.5 kmh 29.20 in988.8 mb 0.00 in0.0 mm 0.00 in0.0 mm 0.00 in0.0 mm
05:55 AM 27.7°F-2.4°C 26.2°F-3.2°C 94% 0.7 mph W1.1 kmh W 1.6 mph2.6 kmh 29.21 in989.2 mb 0.00 in0.0 mm 0.00 in0.0 mm 0.00 in0.0 mm
05:50 AM 27.7°F-2.4°C 26.2°F-3.2°C 94% Calm Calm 0.7 mph1.1 kmh 29.21 in989.2 mb 0.00 in0.0 mm 0.00 in0.0 mm 0.00 in0.0 mm
05:45 AM 27.5°F-2.5°C 26.0°F-3.3°C 94% Calm Calm 0.7 mph1.1 kmh 29.21 in989.2 mb 0.00 in0.0 mm 0.00 in0.0 mm 0.00 in0.0 mm
05:40 AM 27.9°F-2.3°C 26.4°F-3.1°C 94% Calm Calm 1.6 mph2.6 kmh 29.21 in989.2 mb 0.00 in0.0 mm 0.00 in0.0 mm 0.00 in0.0 mm
05:35 AM 28.0°F-2.2°C 26.6°F-3.0°C 94% Calm Calm 1.6 mph2.6 kmh 29.21 in989.2 mb 0.00 in0.0 mm 0.00 in0.0 mm 0.00 in0.0 mm
05:30 AM 28.0°F-2.2°C 26.6°F-3.0°C 94% 0.7 mph W1.1 kmh W 2.2 mph3.5 kmh 29.21 in989.2 mb 0.00 in0.0 mm 0.00 in0.0 mm 0.00 in0.0 mm
05:25 AM 28.0°F-2.2°C 26.6°F-3.0°C 94% Calm Calm 2.2 mph3.5 kmh 29.21 in989.2 mb 0.00 in0.0 mm 0.00 in0.0 mm 0.00 in0.0 mm
05:20 AM 27.7°F-2.4°C 26.2°F-3.2°C 94% 1.6 mph W2.6 kmh W 1.6 mph2.6 kmh 29.21 in989.2 mb 0.00 in0.0 mm 0.00 in0.0 mm 0.00 in0.0 mm
05:15 AM 27.5°F-2.5°C 26.0°F-3.3°C 94% Calm Calm 1.6 mph2.6 kmh 29.21 in989.2 mb 0.00 in0.0 mm 0.00 in0.0 mm 0.00 in0.0 mm
05:10 AM 27.5°F-2.5°C 26.0°F-3.3°C 94% Calm Calm 0.7 mph1.1 kmh 29.21 in989.2 mb 0.00 in0.0 mm 0.00 in0.0 mm 0.00 in0.0 mm
05:05 AM 27.3°F-2.6°C 25.8°F-3.4°C 94% Calm Calm 2.2 mph3.5 kmh 29.21 in989.2 mb 0.00 in0.0 mm 0.00 in0.0 mm 0.00 in0.0 mm
05:00 AM 27.3°F-2.6°C 25.8°F-3.4°C 94% 0.7 mph W1.1 kmh W 2.2 mph3.5 kmh 29.21 in989.2 mb 0.00 in0.0 mm 0.00 in0.0 mm 0.00 in0.0 mm
04:55 AM 27.7°F-2.4°C 26.2°F-3.2°C 94% Calm Calm 2.2 mph3.5 kmh 29.21 in989.2 mb 0.00 in0.0 mm 0.00 in0.0 mm 0.00 in0.0 mm
04:50 AM 28.0°F-2.2°C 26.6°F-3.0°C 94% 1.6 mph W2.6 kmh W 2.2 mph3.5 kmh 29.21 in989.2 mb 0.00 in0.0 mm 0.00 in0.0 mm 0.00 in0.0 mm
04:45 AM 28.0°F-2.2°C 26.6°F-3.0°C 94% 1.6 mph W2.6 kmh W 2.2 mph3.5 kmh 29.21 in989.2 mb 0.00 in0.0 mm 0.00 in0.0 mm 0.00 in0.0 mm
04:40 AM 28.2°F-2.1°C 26.7°F-2.9°C 94% 1.6 mph W2.6 kmh W 2.2 mph3.5 kmh 29.22 in989.5 mb 0.00 in0.0 mm 0.00 in0.0 mm 0.00 in0.0 mm
04:35 AM 28.8°F-1.8°C 27.3°F-2.6°C 94% 1.6 mph W2.6 kmh W 2.2 mph3.5 kmh 29.21 in989.2 mb 0.00 in0.0 mm 0.00 in0.0 mm 0.00 in0.0 mm
04:30 AM 28.6°F-1.9°C 27.1°F-2.7°C 94% Calm Calm 0.7 mph1.1 kmh 29.21 in989.2 mb 0.00 in0.0 mm 0.00 in0.0 mm 0.00 in0.0 mm
04:25 AM 28.6°F-1.9°C 27.1°F-2.7°C 94% Calm Calm 0.7 mph1.1 kmh 29.21 in989.2 mb 0.00 in0.0 mm 0.00 in0.0 mm 0.00 in0.0 mm
04:20 AM 28.2°F-2.1°C 26.7°F-2.9°C 94% Calm Calm 1.6 mph2.6 kmh 29.21 in989.2 mb 0.00 in0.0 mm 0.00 in0.0 mm 0.00 in0.0 mm
04:15 AM 28.2°F-2.1°C 26.7°F-2.9°C 94% Calm Calm 1.6 mph2.6 kmh 29.21 in989.2 mb 0.00 in0.0 mm 0.00 in0.0 mm 0.00 in0.0 mm
04:10 AM 28.2°F-2.1°C 26.7°F-2.9°C 94% Calm Calm 0.7 mph1.1 kmh 29.21 in989.2 mb 0.00 in0.0 mm 0.00 in0.0 mm 0.00 in0.0 mm
04:05 AM 28.2°F-2.1°C 26.7°F-2.9°C 94% Calm Calm 0.7 mph1.1 kmh 29.21 in989.2 mb 0.00 in0.0 mm 0.00 in0.0 mm 0.00 in0.0 mm
04:00 AM 27.9°F-2.3°C 26.4°F-3.1°C 94% Calm Calm 2.2 mph3.5 kmh 29.20 in988.8 mb 0.00 in0.0 mm 0.00 in0.0 mm 0.00 in0.0 mm
03:55 AM 27.9°F-2.3°C 26.4°F-3.1°C 94% Calm Calm 2.2 mph3.5 kmh 29.21 in989.2 mb 0.00 in0.0 mm 0.00 in0.0 mm 0.00 in0.0 mm
03:50 AM 28.2°F-2.1°C 26.7°F-2.9°C 94% 1.6 mph W2.6 kmh W 2.2 mph3.5 kmh 29.21 in989.2 mb 0.00 in0.0 mm 0.00 in0.0 mm 0.00 in0.0 mm
03:45 AM 28.8°F-1.8°C 27.3°F-2.6°C 94% Calm Calm 2.2 mph3.5 kmh 29.21 in989.2 mb 0.00 in0.0 mm 0.00 in0.0 mm 0.00 in0.0 mm
03:40 AM 29.1°F-1.6°C 27.6°F-2.4°C 94% 1.6 mph W2.6 kmh W 2.2 mph3.5 kmh 29.21 in989.2 mb 0.00 in0.0 mm 0.00 in0.0 mm 0.00 in0.0 mm
03:35 AM 29.1°F-1.6°C 27.6°F-2.4°C 94% Calm Calm 1.6 mph2.6 kmh 29.21 in989.2 mb 0.00 in0.0 mm 0.00 in0.0 mm 0.00 in0.0 mm
03:30 AM 29.1°F-1.6°C 27.6°F-2.4°C 94% 0.7 mph W1.1 kmh W 1.6 mph2.6 kmh 29.21 in989.2 mb 0.00 in0.0 mm 0.00 in0.0 mm 0.00 in0.0 mm
03:25 AM 28.8°F-1.8°C 27.3°F-2.6°C 94% Calm Calm -- 29.21 in989.2 mb 0.00 in0.0 mm 0.00 in0.0 mm 0.00 in0.0 mm
03:20 AM 28.6°F-1.9°C 27.1°F-2.7°C 94% Calm Calm -- 29.21 in989.2 mb 0.00 in0.0 mm 0.00 in0.0 mm 0.00 in0.0 mm
03:15 AM 28.6°F-1.9°C 27.1°F-2.7°C 94% Calm Calm 1.6 mph2.6 kmh 29.21 in989.2 mb 0.00 in0.0 mm 0.00 in0.0 mm 0.00 in0.0 mm
03:10 AM 28.4°F-2.0°C 26.9°F-2.8°C 94% Calm Calm 1.6 mph2.6 kmh 29.21 in989.2 mb 0.00 in0.0 mm 0.00 in0.0 mm 0.00 in0.0 mm
03:05 AM 28.8°F-1.8°C 27.3°F-2.6°C 94% 0.7 mph W1.1 kmh W 1.6 mph2.6 kmh 29.22 in989.5 mb 0.00 in0.0 mm 0.00 in0.0 mm 0.00 in0.0 mm
03:00 AM 29.3°F-1.5°C 27.8°F-2.3°C 94% Calm Calm -- 29.22 in989.5 mb 0.00 in0.0 mm 0.00 in0.0 mm 0.00 in0.0 mm
02:55 AM 29.5°F-1.4°C 28.0°F-2.2°C 94% Calm Calm 0.7 mph1.1 kmh 29.21 in989.2 mb 0.00 in0.0 mm 0.00 in0.0 mm 0.00 in0.0 mm
02:50 AM 29.5°F-1.4°C 28.0°F-2.2°C 94% Calm Calm 1.6 mph2.6 kmh 29.22 in989.5 mb 0.00 in0.0 mm 0.00 in0.0 mm 0.00 in0.0 mm
02:45 AM 29.1°F-1.6°C 27.6°F-2.4°C 94% Calm Calm 1.6 mph2.6 kmh 29.22 in989.5 mb 0.00 in0.0 mm 0.00 in0.0 mm 0.00 in0.0 mm
02:40 AM 28.8°F-1.8°C 27.3°F-2.6°C 94% Calm Calm 2.2 mph3.5 kmh 29.22 in989.5 mb 0.00 in0.0 mm 0.00 in0.0 mm 0.00 in0.0 mm
02:35 AM 28.9°F-1.7°C 27.4°F-2.6°C 94% 0.7 mph W1.1 kmh W 2.2 mph3.5 kmh 29.22 in989.5 mb 0.00 in0.0 mm 0.00 in0.0 mm 0.00 in0.0 mm
02:30 AM 29.3°F-1.5°C 27.8°F-2.3°C 94% 0.7 mph W1.1 kmh W 1.6 mph2.6 kmh 29.22 in989.5 mb 0.00 in0.0 mm 0.00 in0.0 mm 0.00 in0.0 mm
02:25 AM 29.7°F-1.3°C 28.2°F-2.1°C 94% Calm Calm 0.7 mph1.1 kmh 29.21 in989.2 mb 0.00 in0.0 mm 0.00 in0.0 mm 0.00 in0.0 mm
02:20 AM 29.5°F-1.4°C 28.0°F-2.2°C 94% Calm Calm 0.7 mph1.1 kmh 29.21 in989.2 mb 0.00 in0.0 mm 0.00 in0.0 mm 0.00 in0.0 mm
02:15 AM 29.8°F-1.2°C 28.3°F-2.1°C 94% Calm Calm 0.7 mph1.1 kmh 29.21 in989.2 mb 0.00 in0.0 mm 0.00 in0.0 mm 0.00 in0.0 mm
02:10 AM 30.0°F-1.1°C 28.5°F-1.9°C 94% Calm Calm -- 29.21 in989.2 mb 0.00 in0.0 mm 0.00 in0.0 mm 0.00 in0.0 mm
02:05 AM 29.7°F-1.3°C 28.2°F-2.1°C 94% Calm Calm 1.6 mph2.6 kmh 29.21 in989.2 mb 0.00 in0.0 mm 0.00 in0.0 mm 0.00 in0.0 mm
02:00 AM 29.3°F-1.5°C 27.8°F-2.3°C 94% Calm Calm 1.6 mph2.6 kmh 29.21 in989.2 mb 0.00 in0.0 mm 0.00 in0.0 mm 0.00 in0.0 mm
01:55 AM 29.5°F-1.4°C 28.0°F-2.2°C 94% 0.7 mph W1.1 kmh W 2.2 mph3.5 kmh 29.22 in989.5 mb 0.00 in0.0 mm 0.00 in0.0 mm 0.00 in0.0 mm
01:50 AM 29.3°F-1.5°C 27.8°F-2.3°C 94% Calm Calm 2.2 mph3.5 kmh 29.21 in989.2 mb 0.00 in0.0 mm 0.00 in0.0 mm 0.00 in0.0 mm
01:45 AM 29.8°F-1.2°C 28.3°F-2.1°C 94% 0.7 mph W1.1 kmh W 2.2 mph3.5 kmh 29.22 in989.5 mb 0.00 in0.0 mm 0.00 in0.0 mm 0.00 in0.0 mm
01:40 AM 29.8°F-1.2°C 28.3°F-2.1°C 94% Calm Calm 1.6 mph2.6 kmh 29.21 in989.2 mb 0.00 in0.0 mm 0.00 in0.0 mm 0.00 in0.0 mm
01:35 AM 29.7°F-1.3°C 28.2°F-2.1°C 94% Calm Calm 1.6 mph2.6 kmh 29.21 in989.2 mb 0.00 in0.0 mm 0.00 in0.0 mm 0.00 in0.0 mm
01:30 AM 29.7°F-1.3°C 28.2°F-2.1°C 94% 0.7 mph W1.1 kmh W 2.2 mph3.5 kmh 29.22 in989.5 mb 0.00 in0.0 mm 0.00 in0.0 mm 0.00 in0.0 mm
01:25 AM 29.8°F-1.2°C 28.3°F-2.1°C 94% 0.7 mph W1.1 kmh W 2.2 mph3.5 kmh 29.21 in989.2 mb 0.00 in0.0 mm 0.00 in0.0 mm 0.00 in0.0 mm
01:20 AM 30.2°F-1.0°C 28.7°F-1.8°C 94% 0.7 mph W1.1 kmh W 2.2 mph3.5 kmh 29.21 in989.2 mb 0.00 in0.0 mm 0.00 in0.0 mm 0.00 in0.0 mm
01:15 AM 31.1°F-0.5°C 29.6°F-1.3°C 94% 1.6 mph W2.6 kmh W 2.2 mph3.5 kmh 29.22 in989.5 mb 0.00 in0.0 mm 0.00 in0.0 mm 0.00 in0.0 mm
01:10 AM 31.1°F-0.5°C 29.6°F-1.3°C 94% Calm Calm 0.7 mph1.1 kmh 29.22 in989.5 mb 0.00 in0.0 mm 0.00 in0.0 mm 0.00 in0.0 mm
01:05 AM 31.1°F-0.5°C 29.6°F-1.3°C 94% Calm Calm 0.7 mph1.1 kmh 29.23 in989.8 mb 0.00 in0.0 mm 0.00 in0.0 mm 0.00 in0.0 mm
01:00 AM 31.3°F-0.4°C 29.8°F-1.2°C 94% Calm Calm 0.7 mph1.1 kmh 29.22 in989.5 mb 0.00 in0.0 mm 0.00 in0.0 mm 0.00 in0.0 mm
12:55 AM 31.5°F-0.3°C 29.9°F-1.2°C 94% Calm Calm 0.7 mph1.1 kmh 29.23 in989.8 mb 0.00 in0.0 mm 0.00 in0.0 mm 0.00 in0.0 mm
12:50 AM 31.6°F-0.2°C 30.1°F-1.1°C 94% Calm Calm 1.6 mph2.6 kmh 29.23 in989.8 mb 0.00 in0.0 mm 0.00 in0.0 mm 0.00 in0.0 mm
12:45 AM 31.5°F-0.3°C 29.9°F-1.2°C 94% Calm Calm 1.6 mph2.6 kmh 29.23 in989.8 mb 0.00 in0.0 mm 0.00 in0.0 mm 0.00 in0.0 mm
12:40 AM 31.5°F-0.3°C 29.9°F-1.2°C 94% Calm Calm 1.6 mph2.6 kmh 29.23 in989.8 mb 0.00 in0.0 mm 0.00 in0.0 mm 0.00 in0.0 mm
12:35 AM 31.3°F-0.4°C 29.8°F-1.2°C 94% Calm Calm 1.6 mph2.6 kmh 29.23 in989.8 mb 0.00 in0.0 mm 0.00 in0.0 mm 0.00 in0.0 mm
12:30 AM 31.3°F-0.4°C 29.8°F-1.2°C 94% Calm Calm 3.1 mph5.0 kmh 29.23 in989.8 mb 0.00 in0.0 mm 0.00 in0.0 mm 0.00 in0.0 mm
12:25 AM 31.3°F-0.4°C 29.8°F-1.2°C 94% Calm Calm 3.1 mph5.0 kmh 29.23 in989.8 mb 0.00 in0.0 mm 0.00 in0.0 mm 0.00 in0.0 mm
12:20 AM 31.6°F-0.2°C 30.1°F-1.1°C 94% 0.7 mph W1.1 kmh W 3.1 mph5.0 kmh 29.23 in989.8 mb 0.00 in0.0 mm 0.00 in0.0 mm 0.00 in0.0 mm
12:15 AM 32.4°F0.2°C 30.8°F-0.7°C 94% 0.7 mph W1.1 kmh W 1.6 mph2.6 kmh 29.23 in989.8 mb 0.00 in0.0 mm 0.00 in0.0 mm 0.00 in0.0 mm
12:10 AM 32.5°F0.3°C 31.0°F-0.6°C 94% Calm Calm 1.6 mph2.6 kmh 29.23 in989.8 mb 0.00 in0.0 mm 0.00 in0.0 mm 0.00 in0.0 mm
12:05 AM 32.2°F0.1°C 30.7°F-0.7°C 94% Calm Calm 3.1 mph5.0 kmh 29.23 in989.8 mb 0.00 in0.0 mm 0.00 in0.0 mm 0.00 in0.0 mm
12:00 AM 32.2°F0.1°C 30.7°F-0.7°C 94% 0.7 mph W1.1 kmh W 3.1 mph5.0 kmh 29.24 in990.2 mb 0.00 in0.0 mm 0.00 in0.0 mm 0.00 in0.0 mm